createdAt,value
2018-06-03T00:00:14.381Z,72.60
2018-06-03T00:01:17.416Z,73.37
2018-06-03T00:02:20.433Z,70.30
2018-06-03T00:03:23.576Z,150.25
2018-06-03T00:04:26.597Z,65.72
2018-06-03T00:05:29.672Z,62.80
2018-06-03T00:06:32.899Z,56.08
2018-06-03T00:07:35.930Z,67.45
2018-06-03T00:08:38.985Z,80.85
2018-06-03T00:09:42.048Z,90.12
2018-06-03T00:10:45.063Z,74.27
2018-06-03T00:11:48.081Z,64.77
2018-06-03T00:12:51.189Z,72.70
2018-06-03T00:13:54.358Z,72.70
2018-06-03T00:14:57.380Z,68.40
2018-06-03T00:16:00.376Z,66.30
2018-06-03T00:17:03.561Z,79.17
2018-06-03T00:18:06.614Z,70.97
2018-06-03T00:19:09.651Z,94.28
2018-06-03T00:20:12.893Z,69.03
2018-06-03T00:21:27.488Z,71.90
2018-06-03T00:22:31.634Z,71.95
2018-06-03T00:23:34.670Z,65.87
2018-06-03T00:24:37.869Z,75.40
2018-06-03T00:25:40.988Z,65.95
2018-06-03T00:26:44.147Z,70.97
2018-06-03T00:27:47.271Z,70.03
2018-06-03T00:28:50.411Z,74.60
2018-06-03T00:29:53.476Z,86.65
2018-06-03T00:30:56.545Z,71.57
2018-06-03T00:31:59.623Z,70.32
2018-06-03T00:33:02.778Z,69.92
2018-06-03T00:34:05.855Z,72.45
2018-06-03T00:35:09.016Z,70.70
2018-06-03T00:36:23.669Z,81.53
2018-06-03T00:37:26.855Z,81.32
2018-06-03T00:38:29.909Z,72.87
2018-06-03T00:39:32.964Z,68.42
2018-06-03T00:40:36.012Z,76.17
2018-06-03T00:41:39.445Z,76.10
2018-06-03T00:42:42.511Z,67.17
2018-06-03T00:43:45.577Z,77.80
2018-06-03T00:44:48.633Z,69.40
2018-06-03T00:45:51.661Z,71.05
2018-06-03T00:46:54.717Z,71.65
2018-06-03T00:47:57.785Z,75.40
2018-06-03T00:49:00.844Z,82.00
2018-06-03T00:50:03.918Z,79.67
2018-06-03T00:51:06.939Z,75.00
2018-06-03T00:52:09.980Z,76.75
2018-06-03T00:53:13.555Z,71.87
2018-06-03T00:54:16.643Z,68.02
2018-06-03T00:55:19.664Z,67.78
2018-06-03T00:56:34.017Z,72.75
2018-06-03T00:57:37.093Z,73.35
2018-06-03T00:58:40.174Z,75.83
2018-06-03T00:59:43.249Z,77.05
2018-06-03T01:00:46.331Z,78.70
2018-06-03T01:01:49.364Z,82.60
2018-06-03T01:02:52.402Z,73.85
2018-06-03T01:03:55.451Z,68.12
2018-06-03T01:04:58.492Z,74.65
2018-06-03T01:06:01.584Z,69.37
2018-06-03T01:07:04.596Z,71.00
2018-06-03T01:08:07.679Z,79.65
2018-06-03T01:09:10.783Z,77.40
2018-06-03T01:10:13.821Z,76.15
2018-06-03T01:11:16.915Z,76.02
2018-06-03T01:12:20.001Z,79.47
2018-06-03T01:13:23.018Z,72.95
2018-06-03T01:14:26.037Z,76.20
2018-06-03T01:15:29.269Z,75.87
2018-06-03T01:16:32.300Z,73.70
2018-06-03T01:17:35.375Z,80.83
2018-06-03T01:18:38.414Z,74.27
2018-06-03T01:19:41.434Z,80.87
2018-06-03T01:20:44.493Z,79.10
2018-06-03T01:21:47.497Z,82.27
2018-06-03T01:22:50.544Z,86.12
2018-06-03T01:23:53.565Z,69.87
2018-06-03T01:24:56.593Z,160.57
2018-06-03T01:25:59.649Z,96.30
2018-06-03T01:27:02.685Z,171.18
2018-06-03T01:28:05.754Z,131.32
2018-06-03T01:29:08.848Z,99.80
2018-06-03T01:30:11.791Z,70.03
2018-06-03T01:31:15.574Z,116.55
2018-06-03T01:32:18.577Z,73.02
2018-06-03T01:33:21.624Z,78.97
2018-06-03T01:34:24.684Z,79.90
2018-06-03T01:35:27.794Z,72.95
2018-06-03T01:36:30.856Z,81.53
2018-06-03T01:37:33.949Z,110.32
2018-06-03T01:38:37.013Z,110.15
2018-06-03T01:39:40.640Z,146.50
2018-06-03T01:40:43.718Z,287.50
2018-06-03T01:41:46.743Z,79.55
2018-06-03T01:42:49.754Z,89.28
2018-06-03T01:43:52.621Z,158.30
2018-06-03T01:44:55.633Z,101.90
2018-06-03T01:45:58.675Z,104.87
2018-06-03T01:47:01.713Z,94.50
2018-06-03T01:48:04.761Z,89.52
2018-06-03T01:49:07.765Z,116.57
2018-06-03T01:50:10.878Z,77.22
2018-06-03T01:51:14.125Z,119.00
2018-06-03T01:52:18.179Z,117.13
2018-06-03T01:53:21.257Z,75.15
2018-06-03T01:54:24.407Z,101.27
2018-06-03T01:55:27.383Z,83.47
2018-06-03T01:56:30.416Z,80.10
2018-06-03T01:57:33.465Z,79.32
2018-06-03T01:58:36.484Z,107.70
2018-06-03T01:59:39.518Z,86.82
2018-06-03T02:00:42.635Z,85.72
2018-06-03T02:01:45.668Z,84.00
2018-06-03T02:02:48.653Z,86.28
2018-06-03T02:03:51.756Z,105.45
2018-06-03T02:04:54.753Z,92.55
2018-06-03T02:05:57.805Z,105.47
2018-06-03T02:07:00.875Z,141.50
2018-06-03T02:08:03.977Z,88.92
2018-06-03T02:09:07.352Z,79.30
2018-06-03T02:10:10.413Z,133.82
2018-06-03T02:11:13.441Z,98.90
2018-06-03T02:12:16.461Z,106.75
2018-06-03T02:13:19.520Z,100.53
2018-06-03T02:14:22.547Z,102.70
2018-06-03T02:15:25.599Z,93.75
2018-06-03T02:16:28.609Z,106.03
2018-06-03T02:17:31.680Z,102.15
2018-06-03T02:18:34.749Z,77.45
2018-06-03T02:19:37.810Z,92.27
2018-06-03T02:20:40.878Z,82.33
2018-06-03T02:21:43.890Z,80.50
2018-06-03T02:22:47.737Z,91.67
2018-06-03T02:23:50.926Z,85.57
2018-06-03T02:24:54.025Z,73.60
2018-06-03T02:25:57.081Z,136.65
2018-06-03T02:27:00.123Z,163.28
2018-06-03T02:28:03.207Z,174.70
2018-06-03T02:29:06.256Z,131.35
2018-06-03T02:30:09.305Z,90.75
2018-06-03T02:31:12.345Z,86.90
2018-06-03T02:32:15.395Z,214.05
2018-06-03T02:33:18.426Z,184.87
2018-06-03T02:34:21.261Z,94.87
2018-06-03T02:35:24.320Z,133.65
2018-06-03T02:36:27.397Z,83.55
2018-06-03T02:37:30.407Z,98.70
2018-06-03T02:38:33.449Z,109.45
2018-06-03T02:39:36.461Z,79.95
2018-06-03T02:40:39.588Z,106.50
2018-06-03T02:41:42.535Z,85.97
2018-06-03T02:42:45.619Z,101.40
2018-06-03T02:43:48.652Z,127.60
2018-06-03T02:44:51.795Z,195.82
2018-06-03T02:45:54.873Z,115.65
2018-06-03T02:46:57.944Z,167.90
2018-06-03T02:48:00.982Z,93.12
2018-06-03T02:49:04.043Z,98.22
2018-06-03T02:50:07.108Z,158.37
2018-06-03T02:51:10.199Z,119.13
2018-06-03T02:52:13.291Z,128.45
2018-06-03T02:53:16.406Z,98.95
2018-06-03T02:54:19.451Z,87.65
2018-06-03T02:55:22.516Z,87.22
2018-06-03T02:56:26.612Z,92.97
2018-06-03T02:57:29.692Z,116.82
2018-06-03T02:58:32.775Z,112.08
2018-06-03T02:59:35.695Z,119.20
2018-06-03T03:00:38.724Z,112.45
2018-06-03T03:01:41.798Z,87.50
2018-06-03T03:02:44.889Z,114.10
2018-06-03T03:03:47.959Z,88.58
2018-06-03T03:04:51.072Z,146.82
2018-06-03T03:05:54.144Z,154.40
2018-06-03T03:06:57.206Z,195.85
2018-06-03T03:08:00.274Z,86.08
2018-06-03T03:09:04.045Z,124.47
2018-06-03T03:10:07.044Z,91.53
2018-06-03T03:11:10.066Z,89.77
2018-06-03T03:12:13.100Z,161.12
2018-06-03T03:13:16.264Z,100.95
2018-06-03T03:14:19.316Z,87.05
2018-06-03T03:15:22.340Z,91.72
2018-06-03T03:16:25.425Z,83.50
2018-06-03T03:17:28.495Z,136.85
2018-06-03T03:18:31.550Z,199.82
2018-06-03T03:19:34.628Z,97.42
2018-06-03T03:20:37.710Z,197.80
2018-06-03T03:21:40.741Z,109.15
2018-06-03T03:22:43.795Z,95.87
2018-06-03T03:23:46.828Z,86.85
2018-06-03T03:24:49.851Z,110.45
2018-06-03T03:25:52.886Z,117.67
2018-06-03T03:26:55.973Z,88.75
2018-06-03T03:27:58.998Z,126.92
2018-06-03T03:29:02.984Z,189.67
2018-06-03T03:30:06.072Z,93.10
2018-06-03T03:31:09.166Z,139.00
2018-06-03T03:32:12.230Z,93.70
2018-06-03T03:33:15.283Z,86.32
2018-06-03T03:34:18.281Z,173.10
2018-06-03T03:35:21.343Z,151.80
2018-06-03T03:36:24.405Z,100.47
2018-06-03T03:37:27.418Z,112.10
2018-06-03T03:38:30.445Z,123.53
2018-06-03T03:39:33.479Z,81.02
2018-06-03T03:40:36.516Z,89.42
2018-06-03T03:41:39.550Z,77.87
2018-06-03T03:42:42.580Z,82.30
2018-06-03T03:43:45.556Z,86.53
2018-06-03T03:44:48.557Z,98.00
2018-06-03T03:45:51.581Z,115.90
2018-06-03T03:46:54.688Z,110.05
2018-06-03T03:47:57.785Z,108.45
2018-06-03T03:49:00.857Z,84.35
2018-06-03T03:50:04.305Z,92.30
2018-06-03T03:51:07.322Z,110.95
2018-06-03T03:52:10.392Z,94.35
2018-06-03T03:53:13.393Z,81.22
2018-06-03T03:54:16.474Z,80.65
2018-06-03T03:55:19.529Z,78.78
2018-06-03T03:56:22.586Z,88.37
2018-06-03T03:57:25.623Z,103.80
2018-06-03T03:58:28.657Z,71.90
2018-06-03T03:59:31.718Z,76.55
2018-06-03T04:00:34.741Z,89.45
2018-06-03T04:01:37.864Z,91.82
2018-06-03T04:02:40.944Z,76.42
2018-06-03T04:03:43.956Z,74.17
2018-06-03T04:04:47.005Z,92.75
2018-06-03T04:05:50.074Z,84.03
2018-06-03T04:06:53.198Z,76.60
2018-06-03T04:07:56.233Z,75.85
2018-06-03T04:08:59.342Z,72.47
2018-06-03T04:10:02.526Z,82.65
2018-06-03T04:11:05.586Z,73.10
2018-06-03T04:12:08.663Z,70.78
2018-06-03T04:13:11.552Z,73.80
2018-06-03T04:14:14.636Z,73.07
2018-06-03T04:15:17.689Z,74.22
2018-06-03T04:16:20.709Z,70.17
2018-06-03T04:17:23.677Z,84.42
2018-06-03T04:18:26.705Z,73.62
2018-06-03T04:19:29.728Z,73.10
2018-06-03T04:20:32.774Z,76.17
2018-06-03T04:21:35.796Z,68.17
2018-06-03T04:22:38.932Z,79.58
2018-06-03T04:23:41.956Z,95.90
2018-06-03T04:24:45.033Z,64.25
2018-06-03T04:25:48.115Z,67.45
2018-06-03T04:27:54.428Z,70.37
2018-06-03T04:28:57.470Z,70.83
2018-06-03T04:30:00.504Z,66.02
2018-06-03T04:31:03.599Z,67.47
2018-06-03T04:32:06.681Z,65.25
2018-06-03T04:33:09.753Z,70.62
2018-06-03T04:34:12.802Z,62.08
2018-06-03T04:35:15.973Z,67.35
2018-06-03T04:36:18.990Z,74.65
2018-06-03T04:37:22.083Z,68.80
2018-06-03T04:38:25.146Z,70.45
2018-06-03T04:39:28.296Z,67.82
2018-06-03T04:40:31.364Z,68.25
2018-06-03T04:41:34.389Z,67.00
2018-06-03T04:42:37.466Z,68.78
2018-06-03T04:43:40.545Z,65.37
2018-06-03T04:44:43.633Z,71.00
2018-06-03T04:45:46.667Z,66.82
2018-06-03T04:46:49.746Z,69.22
2018-06-03T04:47:52.801Z,69.42
2018-06-03T04:48:55.847Z,118.75
2018-06-03T04:49:58.861Z,67.67
2018-06-03T04:51:02.869Z,78.22
2018-06-03T04:52:05.905Z,79.35
2018-06-03T04:53:09.045Z,112.62
2018-06-03T04:54:12.685Z,145.60
2018-06-03T04:55:15.710Z,68.22
2018-06-03T04:56:18.763Z,76.77
2018-06-03T04:57:21.803Z,85.62
2018-06-03T04:58:24.944Z,82.97
2018-06-03T04:59:27.964Z,70.47
2018-06-03T05:00:31.007Z,61.95
2018-06-03T05:01:34.021Z,117.40
2018-06-03T05:02:37.102Z,95.25
2018-06-03T05:03:40.151Z,76.28
2018-06-03T05:04:43.171Z,65.80
2018-06-03T05:05:46.208Z,95.22
2018-06-03T05:06:49.253Z,91.22
2018-06-03T05:07:52.492Z,67.45
2018-06-03T05:08:55.558Z,79.53
2018-06-03T05:09:58.666Z,68.28
2018-06-03T05:11:01.698Z,70.57
2018-06-03T05:12:04.768Z,72.67
2018-06-03T05:13:07.784Z,117.15
2018-06-03T05:14:10.805Z,64.10
2018-06-03T05:15:13.632Z,83.50
2018-06-03T05:16:17.740Z,77.87
2018-06-03T05:17:20.784Z,71.15
2018-06-03T05:18:23.832Z,74.95
2018-06-03T05:19:26.983Z,75.12
2018-06-03T05:20:30.045Z,66.87
2018-06-03T05:21:33.059Z,61.60
2018-06-03T05:22:36.123Z,65.05
2018-06-03T05:23:39.177Z,75.90
2018-06-03T05:24:42.210Z,73.97
2018-06-03T05:25:45.285Z,71.90
2018-06-03T05:26:48.329Z,69.85
2018-06-03T05:27:51.415Z,70.25
2018-06-03T05:28:54.435Z,82.17
2018-06-03T05:29:57.563Z,75.12
2018-06-03T05:31:00.599Z,68.72
2018-06-03T05:32:03.618Z,75.52
2018-06-03T05:33:06.704Z,68.50
2018-06-03T05:34:09.739Z,64.50
2018-06-03T05:35:12.851Z,86.50
2018-06-03T05:36:15.890Z,60.75
2018-06-03T05:37:18.941Z,71.42
2018-06-03T05:38:22.087Z,67.65
2018-06-03T05:39:25.143Z,75.28
2018-06-03T05:40:28.176Z,67.95
2018-06-03T05:41:31.184Z,71.45
2018-06-03T05:42:34.243Z,73.78
2018-06-03T05:43:37.250Z,71.47
2018-06-03T05:44:40.288Z,72.58
2018-06-03T05:45:43.403Z,65.15
2018-06-03T05:46:46.425Z,64.30
2018-06-03T05:47:49.479Z,83.40
2018-06-03T05:48:52.549Z,66.65
2018-06-03T05:49:55.596Z,72.72
2018-06-03T05:50:58.618Z,73.55
2018-06-03T05:52:01.711Z,76.00
2018-06-03T05:53:04.773Z,65.50
2018-06-03T05:54:07.820Z,76.62
2018-06-03T05:55:10.888Z,66.00
2018-06-03T05:56:13.885Z,75.00
2018-06-03T05:57:16.928Z,70.97
2018-06-03T05:58:19.773Z,69.87
2018-06-03T05:59:22.802Z,78.70
2018-06-03T06:00:25.822Z,70.62
2018-06-03T06:01:28.904Z,66.72
2018-06-03T06:02:31.938Z,76.25
2018-06-03T06:03:34.979Z,77.47
2018-06-03T06:04:38.111Z,62.45
2018-06-03T06:05:41.150Z,75.97
2018-06-03T06:06:44.182Z,74.10
2018-06-03T06:07:47.231Z,68.47
2018-06-03T06:08:50.236Z,67.15
2018-06-03T06:09:53.263Z,72.05
2018-06-03T06:10:56.287Z,70.03
2018-06-03T06:11:59.417Z,69.62
2018-06-03T06:13:02.458Z,75.05
2018-06-03T06:14:05.506Z,67.37
2018-06-03T06:15:08.521Z,66.45
2018-06-03T06:16:11.578Z,72.30
2018-06-03T06:17:14.672Z,66.25
2018-06-03T06:18:17.724Z,73.12
2018-06-03T06:19:20.843Z,63.52
2018-06-03T06:20:23.868Z,69.65
2018-06-03T06:21:26.909Z,67.75
2018-06-03T06:22:29.916Z,72.05
2018-06-03T06:23:33.026Z,73.42
2018-06-03T06:24:36.060Z,67.95
2018-06-03T06:25:39.174Z,68.35
2018-06-03T06:26:42.190Z,70.55
2018-06-03T06:27:45.450Z,69.40
2018-06-03T06:28:48.493Z,63.48
2018-06-03T06:29:51.525Z,65.70
2018-06-03T06:30:54.616Z,69.27
2018-06-03T06:31:57.626Z,70.67
2018-06-03T06:33:00.678Z,68.65
2018-06-03T06:34:03.780Z,64.92
2018-06-03T06:35:06.965Z,60.70
2018-06-03T06:36:10.033Z,64.55
2018-06-03T06:37:13.100Z,72.40
2018-06-03T06:38:16.253Z,60.63
2018-06-03T06:39:19.298Z,71.92
2018-06-03T06:40:22.396Z,70.47
2018-06-03T06:41:25.470Z,66.33
2018-06-03T06:42:28.528Z,73.10
2018-06-03T06:43:31.579Z,67.53
2018-06-03T06:44:35.060Z,64.22
2018-06-03T06:45:38.139Z,65.90
2018-06-03T06:46:41.208Z,71.35
2018-06-03T06:47:44.242Z,67.78
2018-06-03T06:48:47.335Z,72.20
2018-06-03T06:49:50.421Z,68.72
2018-06-03T06:50:53.449Z,74.12
2018-06-03T06:51:56.464Z,70.37
2018-06-03T06:52:59.536Z,79.62
2018-06-03T06:54:02.679Z,76.47
2018-06-03T06:55:05.768Z,81.05
2018-06-03T06:56:08.827Z,119.70
2018-06-03T06:57:11.880Z,93.00
2018-06-03T06:58:14.972Z,74.65
2018-06-03T06:59:17.985Z,74.90
2018-06-03T07:00:20.986Z,72.42
2018-06-03T07:01:24.036Z,67.67
2018-06-03T07:02:27.094Z,79.50
2018-06-03T07:03:30.178Z,73.00
2018-06-03T07:04:33.297Z,68.12
2018-06-03T07:05:36.345Z,146.20
2018-06-03T07:06:39.403Z,79.15
2018-06-03T07:07:42.516Z,74.82
2018-06-03T07:08:45.738Z,74.40
2018-06-03T07:09:48.802Z,71.85
2018-06-03T07:10:51.877Z,87.57
2018-06-03T07:11:55.030Z,111.52
2018-06-03T07:12:58.250Z,64.70
2018-06-03T07:14:01.346Z,71.77
2018-06-03T07:15:04.318Z,84.90
2018-06-03T07:16:07.624Z,104.50
2018-06-03T07:17:10.463Z,121.57
2018-06-03T07:18:13.513Z,67.40
2018-06-03T07:19:16.621Z,79.77
2018-06-03T07:20:19.742Z,108.03
2018-06-03T07:21:22.848Z,69.67
2018-06-03T07:22:25.913Z,71.82
2018-06-03T07:23:28.981Z,76.75
2018-06-03T07:24:32.026Z,92.37
2018-06-03T07:25:35.074Z,94.97
2018-06-03T07:26:38.141Z,74.00
2018-06-03T07:27:41.225Z,75.15
2018-06-03T07:28:44.272Z,74.42
2018-06-03T07:29:47.328Z,69.47
2018-06-03T07:30:50.456Z,70.57
2018-06-03T07:31:53.536Z,96.25
2018-06-03T07:32:56.737Z,83.58
2018-06-03T07:33:59.852Z,72.82
2018-06-03T07:35:02.976Z,72.60
2018-06-03T07:36:06.041Z,82.97
2018-06-03T07:37:09.093Z,119.45
2018-06-03T07:38:12.269Z,83.78
2018-06-03T07:39:15.434Z,66.57
2018-06-03T07:40:18.527Z,72.75
2018-06-03T07:41:21.619Z,84.90
2018-06-03T07:42:24.671Z,74.00
2018-06-03T07:43:27.727Z,68.37
2018-06-03T07:44:30.785Z,84.37
2018-06-03T07:45:33.800Z,86.30
2018-06-03T07:46:36.754Z,74.45
2018-06-03T07:47:39.773Z,83.27
2018-06-03T07:48:42.911Z,84.20
2018-06-03T07:49:45.984Z,96.30
2018-06-03T07:50:49.047Z,82.12
2018-06-03T07:51:52.103Z,95.72
2018-06-03T07:52:55.251Z,69.92
2018-06-03T07:53:58.322Z,82.65
2018-06-03T07:55:01.361Z,75.55
2018-06-03T07:56:05.451Z,80.40
2018-06-03T07:57:08.504Z,79.10
2018-06-03T07:58:11.529Z,80.28
2018-06-03T07:59:14.581Z,76.67
2018-06-03T08:00:17.668Z,83.03
2018-06-03T08:01:20.724Z,83.82
2018-06-03T08:02:23.673Z,71.05
2018-06-03T08:03:26.752Z,74.77
2018-06-03T08:04:29.813Z,96.53
2018-06-03T08:05:32.883Z,71.15
2018-06-03T08:06:35.969Z,70.62
2018-06-03T08:07:39.074Z,81.82
2018-06-03T08:08:42.204Z,116.88
2018-06-03T08:09:45.236Z,74.75
2018-06-03T08:10:48.258Z,69.30
2018-06-03T08:11:51.337Z,65.83
2018-06-03T08:12:54.559Z,90.10
2018-06-03T08:13:57.601Z,109.55
2018-06-03T08:15:00.621Z,87.67
2018-06-03T08:16:03.695Z,101.87
2018-06-03T08:17:06.759Z,156.80
2018-06-03T08:18:09.888Z,65.10
2018-06-03T08:19:12.941Z,66.60
2018-06-03T08:20:16.051Z,87.15
2018-06-03T08:21:19.358Z,121.97
2018-06-03T08:22:22.429Z,129.65
2018-06-03T08:23:25.491Z,142.00
2018-06-03T08:24:28.636Z,67.97
2018-06-03T08:25:31.739Z,68.52
2018-06-03T08:26:34.846Z,80.72
2018-06-03T08:27:37.883Z,83.85
2018-06-03T08:28:40.973Z,64.60
2018-06-03T08:29:44.065Z,65.42
2018-06-03T08:30:47.140Z,62.83
2018-06-03T08:31:50.201Z,86.02
2018-06-03T08:32:53.223Z,71.33
2018-06-03T08:33:56.302Z,66.47
2018-06-03T08:34:59.360Z,64.47
2018-06-03T08:36:02.388Z,77.25
2018-06-03T08:37:05.426Z,69.58
2018-06-03T08:38:08.589Z,75.17
2018-06-03T08:39:11.968Z,63.00
2018-06-03T08:40:15.349Z,61.00
2018-06-03T08:41:18.484Z,75.45
2018-06-03T08:42:21.632Z,94.35
2018-06-03T08:43:24.669Z,83.15
2018-06-03T08:44:27.716Z,84.03
2018-06-03T08:45:30.864Z,70.62
2018-06-03T08:46:34.149Z,63.98
2018-06-03T08:47:37.197Z,103.25
2018-06-03T08:48:40.247Z,63.40
2018-06-03T08:49:43.345Z,87.57
2018-06-03T08:50:46.717Z,105.12
2018-06-03T08:51:49.922Z,65.40
2018-06-03T08:52:53.077Z,58.52
2018-06-03T08:53:56.727Z,78.52
2018-06-03T08:54:59.767Z,74.05
2018-06-03T08:56:02.795Z,66.60
2018-06-03T08:57:05.853Z,75.85
2018-06-03T08:58:09.023Z,64.62
2018-06-03T08:59:12.173Z,71.50
2018-06-03T09:00:15.370Z,68.45
2018-06-03T09:01:18.415Z,91.45
2018-06-03T09:02:21.480Z,66.77
2018-06-03T09:03:24.657Z,71.17
2018-06-03T09:04:27.890Z,68.95
2018-06-03T09:05:32.043Z,64.53
2018-06-03T09:06:35.128Z,69.17
2018-06-03T09:07:38.459Z,77.62
2018-06-03T09:08:41.305Z,87.57
2018-06-03T09:09:44.480Z,76.80
2018-06-03T09:10:47.781Z,114.65
2018-06-03T09:11:50.957Z,66.25
2018-06-03T09:12:54.024Z,62.70
2018-06-03T09:13:57.248Z,62.95
2018-06-03T09:15:00.451Z,97.88
2018-06-03T09:16:03.531Z,102.95
2018-06-03T09:17:06.573Z,56.35
2018-06-03T09:18:09.702Z,56.33
2018-06-03T09:19:12.878Z,73.47
2018-06-03T09:20:16.007Z,57.62
2018-06-03T09:21:19.129Z,64.97
2018-06-03T09:22:22.218Z,59.18
2018-06-03T09:23:25.269Z,87.85
2018-06-03T09:24:28.342Z,54.90
2018-06-03T09:25:31.391Z,60.48
2018-06-03T09:26:34.458Z,45.10
2018-06-03T09:27:37.517Z,55.58
2018-06-03T09:28:40.817Z,51.55
2018-06-03T09:29:44.132Z,63.23
2018-06-03T09:30:47.851Z,84.03
2018-06-03T09:31:50.881Z,46.50
2018-06-03T09:32:53.970Z,65.92
2018-06-03T09:33:56.945Z,46.28
2018-06-03T09:35:00.000Z,89.45
2018-06-03T09:36:03.056Z,47.85
2018-06-03T09:37:06.386Z,64.42
2018-06-03T09:38:09.457Z,83.45
2018-06-03T09:39:12.594Z,56.58
2018-06-03T09:40:15.675Z,47.08
2018-06-03T09:41:18.741Z,56.65
2018-06-03T09:42:21.753Z,49.67
2018-06-03T09:43:24.796Z,56.50
2018-06-03T09:44:27.901Z,56.30
2018-06-03T09:45:31.011Z,55.75
2018-06-03T09:46:34.063Z,89.47
2018-06-03T09:47:37.122Z,169.93
2018-06-03T09:48:40.432Z,82.92
2018-06-03T09:49:43.493Z,91.85
2018-06-03T09:50:46.742Z,64.55
2018-06-03T09:51:49.891Z,61.13
2018-06-03T09:52:53.075Z,96.97
2018-06-03T09:53:56.274Z,54.63
2018-06-03T09:54:59.453Z,76.70
2018-06-03T09:56:02.503Z,55.33
2018-06-03T09:57:05.578Z,112.37
2018-06-03T09:58:08.646Z,89.28
2018-06-03T09:59:11.730Z,82.72
2018-06-03T10:00:21.176Z,56.23
2018-06-03T10:01:24.232Z,69.87
2018-06-03T10:02:27.257Z,88.65
2018-06-03T10:03:30.313Z,79.40
2018-06-03T10:04:33.399Z,60.00
2018-06-03T10:05:36.465Z,63.70
2018-06-03T10:06:39.549Z,58.17
2018-06-03T10:07:42.514Z,57.35
2018-06-03T10:08:45.598Z,79.50
2018-06-03T10:09:48.656Z,61.45
2018-06-03T10:10:51.732Z,72.82
2018-06-03T10:11:54.748Z,77.05
2018-06-03T10:12:57.805Z,65.60
2018-06-03T10:14:01.014Z,74.27
2018-06-03T10:15:04.088Z,88.05
2018-06-03T10:16:07.249Z,62.35
2018-06-03T10:17:10.054Z,65.10
2018-06-03T10:18:13.253Z,79.00
2018-06-03T10:19:16.305Z,63.52
2018-06-03T10:20:19.373Z,61.80
2018-06-03T10:21:22.490Z,55.03
2018-06-03T10:22:25.741Z,83.65
2018-06-03T10:23:29.141Z,64.77
2018-06-03T10:24:32.490Z,104.03
2018-06-03T10:25:35.538Z,67.90
2018-06-03T10:26:38.884Z,61.60
2018-06-03T10:27:41.930Z,59.53
2018-06-03T10:28:45.256Z,60.63
2018-06-03T10:29:48.368Z,97.08
2018-06-03T10:30:51.387Z,64.92
2018-06-03T10:31:54.607Z,67.92
2018-06-03T10:32:57.702Z,69.00
2018-06-03T10:34:00.834Z,69.55
2018-06-03T10:35:03.872Z,70.05
2018-06-03T10:36:06.930Z,63.50
2018-06-03T10:37:09.961Z,81.55
2018-06-03T10:38:13.054Z,70.35
2018-06-03T10:39:16.176Z,89.10
2018-06-03T10:40:19.251Z,71.40
2018-06-03T10:41:22.272Z,73.42
2018-06-03T10:42:25.324Z,90.67
2018-06-03T10:43:28.475Z,62.88
2018-06-03T10:44:31.565Z,80.90
2018-06-03T10:45:34.886Z,58.05
2018-06-03T10:46:38.905Z,72.42
2018-06-03T10:47:42.086Z,61.60
2018-06-03T10:48:45.225Z,61.42
2018-06-03T10:49:48.297Z,73.00
2018-06-03T10:50:51.399Z,65.03
2018-06-03T10:51:54.463Z,67.75
2018-06-03T10:52:57.570Z,61.50
2018-06-03T10:54:00.684Z,61.33
2018-06-03T10:55:03.761Z,58.73
2018-06-03T10:56:06.820Z,54.15
2018-06-03T10:57:09.852Z,58.38
2018-06-03T10:58:12.910Z,73.12
2018-06-03T10:59:15.802Z,52.05
2018-06-03T11:00:18.981Z,52.30
2018-06-03T11:01:22.046Z,58.50
2018-06-03T11:02:25.117Z,61.10
2018-06-03T11:03:28.174Z,51.68
2018-06-03T11:04:31.294Z,52.38
2018-06-03T11:06:35.553Z,55.03
2018-06-03T11:07:38.602Z,51.35
2018-06-03T11:08:41.674Z,51.37
2018-06-03T11:09:44.729Z,52.23
2018-06-03T11:10:47.905Z,47.23
2018-06-03T11:11:51.094Z,49.15
2018-06-03T11:12:54.160Z,44.83
2018-06-03T11:13:57.263Z,56.37
2018-06-03T11:15:00.290Z,48.80
2018-06-03T11:16:03.454Z,51.63
2018-06-03T11:17:06.692Z,40.83
2018-06-03T11:18:09.921Z,45.38
2018-06-03T11:19:13.080Z,51.55
2018-06-03T11:20:16.225Z,45.35
2018-06-03T11:21:19.336Z,46.75
2018-06-03T11:22:22.489Z,49.08
2018-06-03T11:23:25.525Z,52.80
2018-06-03T11:24:28.585Z,56.58
2018-06-03T11:25:31.628Z,45.70
2018-06-03T11:26:34.655Z,47.75
2018-06-03T11:27:37.729Z,59.67
2018-06-03T11:28:40.770Z,51.10
2018-06-03T11:29:43.815Z,48.63
2018-06-03T11:30:46.865Z,65.03
2018-06-03T11:31:49.917Z,49.05
2018-06-03T11:32:52.940Z,64.35
2018-06-03T11:33:56.266Z,47.70
2018-06-03T11:34:59.293Z,49.03
2018-06-03T11:36:02.408Z,52.62
2018-06-03T11:37:05.490Z,44.65
2018-06-03T11:38:08.533Z,41.65
2018-06-03T11:39:11.590Z,65.80
2018-06-03T11:40:14.635Z,44.60
2018-06-03T11:41:17.688Z,45.83
2018-06-03T11:42:20.724Z,43.30
2018-06-03T11:43:23.805Z,43.80
2018-06-03T11:44:26.807Z,42.35
2018-06-03T11:45:29.868Z,46.95
2018-06-03T11:46:32.949Z,51.08
2018-06-03T11:47:36.019Z,46.35
2018-06-03T11:48:40.479Z,47.65
2018-06-03T11:49:43.604Z,49.58
2018-06-03T11:50:46.643Z,41.25
2018-06-03T11:51:50.733Z,46.05
2018-06-03T11:52:54.050Z,50.55
2018-06-03T11:53:57.227Z,43.40
2018-06-03T11:55:00.301Z,50.73
2018-06-03T11:56:03.317Z,58.08
2018-06-03T11:57:06.375Z,44.03
2018-06-03T11:58:46.200Z,51.02
2018-06-03T11:59:49.435Z,48.08
2018-06-03T12:00:52.458Z,51.33
2018-06-03T12:01:55.469Z,54.38
2018-06-03T12:02:58.602Z,49.83
2018-06-03T12:04:01.633Z,49.85
2018-06-03T12:05:04.787Z,51.85
2018-06-03T12:06:07.909Z,46.15
2018-06-03T12:07:10.950Z,54.20
2018-06-03T12:08:14.039Z,46.85
2018-06-03T12:09:17.065Z,43.17
2018-06-03T12:10:20.133Z,43.38
2018-06-03T12:11:23.273Z,65.50
2018-06-03T12:12:26.399Z,46.42
2018-06-03T12:13:29.493Z,48.83
2018-06-03T12:14:32.535Z,40.25
2018-06-03T12:15:35.669Z,41.18
2018-06-03T12:16:38.736Z,40.90
2018-06-03T12:17:41.801Z,41.55
2018-06-03T12:18:44.854Z,43.08
2018-06-03T12:19:47.929Z,40.03
2018-06-03T12:20:50.986Z,40.70
2018-06-03T12:21:54.137Z,36.08
2018-06-03T12:22:57.161Z,38.67
2018-06-03T12:24:00.204Z,40.85
2018-06-03T12:25:03.223Z,40.58
2018-06-03T12:26:06.294Z,33.85
2018-06-03T12:27:09.355Z,36.93
2018-06-03T12:28:12.465Z,38.63
2018-06-03T12:29:15.580Z,34.50
2018-06-03T12:30:18.648Z,35.63
2018-06-03T12:31:21.726Z,39.05
2018-06-03T12:32:24.801Z,36.65
2018-06-03T12:33:27.981Z,37.33
2018-06-03T12:34:31.057Z,38.73
2018-06-03T12:35:34.269Z,34.67
2018-06-03T12:36:37.312Z,38.02
2018-06-03T12:37:40.393Z,42.95
2018-06-03T12:38:43.954Z,37.30
2018-06-03T12:39:47.038Z,38.85
2018-06-03T12:40:50.112Z,37.88
2018-06-03T12:41:53.183Z,32.93
2018-06-03T12:42:56.232Z,35.17
2018-06-03T12:43:59.284Z,31.48
2018-06-03T12:45:02.417Z,33.58
2018-06-03T12:46:05.576Z,37.28
2018-06-03T12:47:08.612Z,35.92
2018-06-03T12:48:11.707Z,34.58
2018-06-03T12:49:14.783Z,40.35
2018-06-03T12:50:17.828Z,26.95
2018-06-03T12:51:20.901Z,31.40
2018-06-03T12:52:23.963Z,35.52
2018-06-03T12:53:27.008Z,28.15
2018-06-03T12:54:30.064Z,53.08
2018-06-03T12:55:33.117Z,24.55
2018-06-03T12:56:36.159Z,40.58
2018-06-03T12:57:39.206Z,25.48
2018-06-03T12:58:42.268Z,40.08
2018-06-03T12:59:45.328Z,38.38
2018-06-03T13:00:48.341Z,35.17
2018-06-03T13:01:51.651Z,19.17
2018-06-03T13:02:54.700Z,21.42
2018-06-03T13:03:57.724Z,23.55
2018-06-03T13:05:00.758Z,22.50
2018-06-03T13:06:05.257Z,28.23
2018-06-03T13:07:08.321Z,16.93
2018-06-03T13:08:11.396Z,24.18
2018-06-03T13:09:14.427Z,32.88
2018-06-03T13:10:17.498Z,32.10
2018-06-03T13:11:20.580Z,42.48
2018-06-03T13:12:23.605Z,19.60
2018-06-03T13:13:26.663Z,16.37
2018-06-03T13:14:29.704Z,20.52
2018-06-03T13:15:32.757Z,18.30
2018-06-03T13:16:35.840Z,17.55
2018-06-03T13:17:38.705Z,31.60
2018-06-03T13:18:41.819Z,17.67
2018-06-03T13:19:44.804Z,18.85
2018-06-03T13:20:47.920Z,36.03
2018-06-03T13:21:51.105Z,14.23
2018-06-03T13:22:55.974Z,13.45
2018-06-03T13:23:59.240Z,25.57
2018-06-03T13:25:02.368Z,17.05
2018-06-03T13:26:05.445Z,18.37
2018-06-03T13:27:08.534Z,13.78
2018-06-03T13:28:11.667Z,20.70
2018-06-03T13:29:14.733Z,22.13
2018-06-03T13:30:17.847Z,13.50
2018-06-03T13:31:20.981Z,33.28
2018-06-03T13:32:24.017Z,16.80